sensor_id;sensor_type;location;lat;lon;timestamp;P1;durP1;ratioP1;P2;durP2;ratioP2
46282;SDS011;32017;43.700;11.820;2022-12-18T00:00:30;160.73;;;28.10;;
46282;SDS011;32017;43.700;11.820;2022-12-18T00:02:50;143.55;;;26.98;;
46282;SDS011;32017;43.700;11.820;2022-12-18T00:05:10;172.00;;;27.52;;
46282;SDS011;32017;43.700;11.820;2022-12-18T00:07:30;172.93;;;27.02;;
46282;SDS011;32017;43.700;11.820;2022-12-18T00:09:50;242.07;;;28.50;;
46282;SDS011;32017;43.700;11.820;2022-12-18T00:12:09;227.63;;;30.83;;
46282;SDS011;32017;43.700;11.820;2022-12-18T00:14:34;130.77;;;28.60;;
46282;SDS011;32017;43.700;11.820;2022-12-18T00:16:54;156.68;;;28.70;;
46282;SDS011;32017;43.700;11.820;2022-12-18T00:19:14;126.80;;;27.15;;
46282;SDS011;32017;43.700;11.820;2022-12-18T00:21:34;117.38;;;24.92;;
46282;SDS011;32017;43.700;11.820;2022-12-18T00:23:54;98.15;;;25.15;;
46282;SDS011;32017;43.700;11.820;2022-12-18T00:26:15;86.50;;;22.27;;
46282;SDS011;32017;43.700;11.820;2022-12-18T00:28:37;65.03;;;21.08;;
46282;SDS011;32017;43.700;11.820;2022-12-18T00:33:22;32.60;;;18.92;;
46282;SDS011;32017;43.700;11.820;2022-12-18T00:35:42;38.85;;;19.13;;
46282;SDS011;32017;43.700;11.820;2022-12-18T00:38:02;70.57;;;22.52;;
46282;SDS011;32017;43.700;11.820;2022-12-18T00:40:21;73.00;;;22.80;;
46282;SDS011;32017;43.700;11.820;2022-12-18T00:42:41;61.58;;;27.23;;
46282;SDS011;32017;43.700;11.820;2022-12-18T00:45:16;75.68;;;24.52;;
46282;SDS011;32017;43.700;11.820;2022-12-18T00:47:36;142.23;;;25.95;;
46282;SDS011;32017;43.700;11.820;2022-12-18T00:49:56;133.55;;;28.20;;
46282;SDS011;32017;43.700;11.820;2022-12-18T00:52:15;126.55;;;27.17;;
46282;SDS011;32017;43.700;11.820;2022-12-18T00:54:35;86.85;;;22.20;;
46282;SDS011;32017;43.700;11.820;2022-12-18T00:56:55;56.72;;;20.88;;
46282;SDS011;32017;43.700;11.820;2022-12-18T00:59:15;41.83;;;18.80;;
46282;SDS011;32017;43.700;11.820;2022-12-18T01:01:35;22.10;;;15.90;;
46282;SDS011;32017;43.700;11.820;2022-12-18T01:03:55;14.65;;;13.43;;
46282;SDS011;32017;43.700;11.820;2022-12-18T01:06:15;74.85;;;20.20;;
46282;SDS011;32017;43.700;11.820;2022-12-18T01:08:35;32.20;;;15.85;;
46282;SDS011;32017;43.700;11.820;2022-12-18T01:10:55;48.08;;;16.08;;
46282;SDS011;32017;43.700;11.820;2022-12-18T01:13:15;88.93;;;22.65;;
46282;SDS011;32017;43.700;11.820;2022-12-18T01:15:34;94.45;;;22.98;;
46282;SDS011;32017;43.700;11.820;2022-12-18T01:17:54;137.63;;;27.98;;
46282;SDS011;32017;43.700;11.820;2022-12-18T01:20:14;237.60;;;31.77;;
46282;SDS011;32017;43.700;11.820;2022-12-18T01:22:34;303.55;;;33.78;;
46282;SDS011;32017;43.700;11.820;2022-12-18T01:24:54;309.23;;;34.38;;
46282;SDS011;32017;43.700;11.820;2022-12-18T01:27:14;236.10;;;30.70;;
46282;SDS011;32017;43.700;11.820;2022-12-18T01:29:34;297.65;;;32.55;;
46282;SDS011;32017;43.700;11.820;2022-12-18T01:31:57;276.08;;;29.13;;
46282;SDS011;32017;43.700;11.820;2022-12-18T01:34:17;202.88;;;28.05;;
46282;SDS011;32017;43.700;11.820;2022-12-18T01:36:37;189.98;;;29.48;;
46282;SDS011;32017;43.700;11.820;2022-12-18T01:39:03;219.73;;;30.38;;
46282;SDS011;32017;43.700;11.820;2022-12-18T01:41:26;184.80;;;27.60;;
46282;SDS011;32017;43.700;11.820;2022-12-18T01:47:08;88.82;;;19.52;;
46282;SDS011;32017;43.700;11.820;2022-12-18T01:49:27;15.10;;;14.38;;
46282;SDS011;32017;43.700;11.820;2022-12-18T01:51:47;12.68;;;12.13;;
46282;SDS011;32017;43.700;11.820;2022-12-18T01:54:06;11.80;;;11.45;;
46282;SDS011;32017;43.700;11.820;2022-12-18T01:56:26;11.80;;;10.90;;
46282;SDS011;32017;43.700;11.820;2022-12-18T02:01:09;12.68;;;12.05;;
46282;SDS011;32017;43.700;11.820;2022-12-18T02:03:29;9.70;;;9.35;;
46282;SDS011;32017;43.700;11.820;2022-12-18T02:05:54;10.93;;;10.38;;
46282;SDS011;32017;43.700;11.820;2022-12-18T02:08:33;324.88;;;32.65;;
46282;SDS011;32017;43.700;11.820;2022-12-18T02:11:10;396.67;;;36.90;;
46282;SDS011;32017;43.700;11.820;2022-12-18T02:16:29;250.77;;;37.17;;
46282;SDS011;32017;43.700;11.820;2022-12-18T02:18:59;213.27;;;31.42;;
46282;SDS011;32017;43.700;11.820;2022-12-18T02:21:36;273.23;;;31.85;;
46282;SDS011;32017;43.700;11.820;2022-12-18T02:26:53;233.55;;;32.97;;
46282;SDS011;32017;43.700;11.820;2022-12-18T02:29:18;289.95;;;34.08;;
46282;SDS011;32017;43.700;11.820;2022-12-18T02:31:43;193.98;;;26.73;;
46282;SDS011;32017;43.700;11.820;2022-12-18T02:34:09;127.22;;;24.20;;
46282;SDS011;32017;43.700;11.820;2022-12-18T02:36:30;23.83;;;16.35;;
46282;SDS011;32017;43.700;11.820;2022-12-18T02:38:52;45.45;;;22.17;;
46282;SDS011;32017;43.700;11.820;2022-12-18T02:41:14;30.83;;;26.30;;
46282;SDS011;32017;43.700;11.820;2022-12-18T02:43:36;31.65;;;25.77;;
46282;SDS011;32017;43.700;11.820;2022-12-18T02:45:57;28.45;;;23.92;;
46282;SDS011;32017;43.700;11.820;2022-12-18T02:48:19;24.02;;;21.75;;
46282;SDS011;32017;43.700;11.820;2022-12-18T02:50:45;25.95;;;23.23;;
46282;SDS011;32017;43.700;11.820;2022-12-18T02:53:33;19.85;;;17.50;;
46282;SDS011;32017;43.700;11.820;2022-12-18T02:56:13;24.17;;;19.33;;
46282;SDS011;32017;43.700;11.820;2022-12-18T03:03:43;456.27;;;44.17;;
46282;SDS011;32017;43.700;11.820;2022-12-18T03:06:13;422.70;;;42.20;;
46282;SDS011;32017;43.700;11.820;2022-12-18T03:08:41;483.92;;;52.10;;
46282;SDS011;32017;43.700;11.820;2022-12-18T03:11:11;54.17;;;29.92;;
46282;SDS011;32017;43.700;11.820;2022-12-18T03:13:46;88.68;;;29.75;;
46282;SDS011;32017;43.700;11.820;2022-12-18T03:16:18;32.30;;;26.42;;
46282;SDS011;32017;43.700;11.820;2022-12-18T03:18:49;19.35;;;18.35;;
46282;SDS011;32017;43.700;11.820;2022-12-18T03:21:14;15.60;;;14.88;;
46282;SDS011;32017;43.700;11.820;2022-12-18T03:23:43;13.63;;;13.05;;
46282;SDS011;32017;43.700;11.820;2022-12-18T03:26:07;12.25;;;11.82;;
46282;SDS011;32017;43.700;11.820;2022-12-18T03:28:31;15.95;;;15.05;;
46282;SDS011;32017;43.700;11.820;2022-12-18T03:30:58;15.05;;;14.07;;
46282;SDS011;32017;43.700;11.820;2022-12-18T03:35:45;12.85;;;12.02;;
46282;SDS011;32017;43.700;11.820;2022-12-18T03:38:06;12.02;;;11.43;;
46282;SDS011;32017;43.700;11.820;2022-12-18T03:40:45;13.57;;;12.90;;
46282;SDS011;32017;43.700;11.820;2022-12-18T03:43:57;14.95;;;14.00;;
46282;SDS011;32017;43.700;11.820;2022-12-18T03:46:03;106.90;;;19.63;;
46282;SDS011;32017;43.700;11.820;2022-12-18T03:48:39;16.35;;;15.20;;
46282;SDS011;32017;43.700;11.820;2022-12-18T03:51:07;12.95;;;12.55;;
46282;SDS011;32017;43.700;11.820;2022-12-18T03:53:42;12.57;;;11.63;;
46282;SDS011;32017;43.700;11.820;2022-12-18T03:56:13;11.57;;;11.07;;
46282;SDS011;32017;43.700;11.820;2022-12-18T03:58:36;11.13;;;10.52;;
46282;SDS011;32017;43.700;11.820;2022-12-18T04:00:58;12.13;;;11.60;;
46282;SDS011;32017;43.700;11.820;2022-12-18T04:03:22;13.48;;;12.63;;
46282;SDS011;32017;43.700;11.820;2022-12-18T04:05:56;13.55;;;12.57;;
46282;SDS011;32017;43.700;11.820;2022-12-18T04:08:18;15.23;;;14.50;;
46282;SDS011;32017;43.700;11.820;2022-12-18T04:10:40;15.23;;;14.30;;
46282;SDS011;32017;43.700;11.820;2022-12-18T04:13:00;15.13;;;14.32;;
46282;SDS011;32017;43.700;11.820;2022-12-18T04:15:20;11.48;;;11.10;;
46282;SDS011;32017;43.700;11.820;2022-12-18T04:17:43;12.95;;;12.20;;
46282;SDS011;32017;43.700;11.820;2022-12-18T04:20:07;14.68;;;13.63;;
46282;SDS011;32017;43.700;11.820;2022-12-18T04:22:27;12.63;;;12.20;;
46282;SDS011;32017;43.700;11.820;2022-12-18T04:24:47;10.40;;;10.00;;
46282;SDS011;32017;43.700;11.820;2022-12-18T04:27:07;10.25;;;9.52;;
46282;SDS011;32017;43.700;11.820;2022-12-18T04:29:27;7.72;;;7.43;;
46282;SDS011;32017;43.700;11.820;2022-12-18T04:31:47;7.78;;;7.63;;
46282;SDS011;32017;43.700;11.820;2022-12-18T04:34:07;9.63;;;9.02;;
46282;SDS011;32017;43.700;11.820;2022-12-18T04:36:27;9.13;;;8.68;;
46282;SDS011;32017;43.700;11.820;2022-12-18T04:38:47;8.73;;;8.43;;
46282;SDS011;32017;43.700;11.820;2022-12-18T04:41:07;12.63;;;11.75;;
46282;SDS011;32017;43.700;11.820;2022-12-18T04:43:27;14.70;;;13.98;;
46282;SDS011;32017;43.700;11.820;2022-12-18T04:45:47;14.50;;;13.90;;
46282;SDS011;32017;43.700;11.820;2022-12-18T04:48:06;12.48;;;11.93;;
46282;SDS011;32017;43.700;11.820;2022-12-18T04:50:26;11.23;;;10.95;;
46282;SDS011;32017;43.700;11.820;2022-12-18T04:52:46;7.10;;;6.80;;
46282;SDS011;32017;43.700;11.820;2022-12-18T04:55:06;8.35;;;8.25;;
46282;SDS011;32017;43.700;11.820;2022-12-18T04:57:26;7.72;;;7.43;;
46282;SDS011;32017;43.700;11.820;2022-12-18T04:59:46;7.80;;;7.50;;
46282;SDS011;32017;43.700;11.820;2022-12-18T05:02:06;8.95;;;8.77;;
46282;SDS011;32017;43.700;11.820;2022-12-18T05:04:26;125.90;;;27.27;;
46282;SDS011;32017;43.700;11.820;2022-12-18T05:06:46;206.00;;;29.85;;
46282;SDS011;32017;43.700;11.820;2022-12-18T05:09:07;208.15;;;33.85;;
46282;SDS011;32017;43.700;11.820;2022-12-18T05:11:28;164.82;;;34.58;;
46282;SDS011;32017;43.700;11.820;2022-12-18T05:13:48;160.35;;;36.88;;
46282;SDS011;32017;43.700;11.820;2022-12-18T05:16:08;96.28;;;33.97;;
46282;SDS011;32017;43.700;11.820;2022-12-18T05:18:28;72.63;;;31.58;;
46282;SDS011;32017;43.700;11.820;2022-12-18T05:20:49;44.70;;;29.70;;
46282;SDS011;32017;43.700;11.820;2022-12-18T05:23:10;31.27;;;28.73;;
46282;SDS011;32017;43.700;11.820;2022-12-18T05:25:29;40.67;;;26.52;;
46282;SDS011;32017;43.700;11.820;2022-12-18T05:27:50;29.38;;;27.42;;
46282;SDS011;32017;43.700;11.820;2022-12-18T05:30:10;26.23;;;24.83;;
46282;SDS011;32017;43.700;11.820;2022-12-18T05:32:31;25.63;;;24.65;;
46282;SDS011;32017;43.700;11.820;2022-12-18T05:34:51;16.75;;;15.88;;
46282;SDS011;32017;43.700;11.820;2022-12-18T05:37:11;14.57;;;14.07;;
46282;SDS011;32017;43.700;11.820;2022-12-18T05:39:32;13.05;;;12.65;;
46282;SDS011;32017;43.700;11.820;2022-12-18T05:41:51;10.85;;;10.50;;
46282;SDS011;32017;43.700;11.820;2022-12-18T05:44:12;12.23;;;11.52;;
46282;SDS011;32017;43.700;11.820;2022-12-18T05:46:32;8.55;;;8.20;;
46282;SDS011;32017;43.700;11.820;2022-12-18T05:48:52;18.77;;;17.92;;
46282;SDS011;32017;43.700;11.820;2022-12-18T05:51:14;26.23;;;24.88;;
46282;SDS011;32017;43.700;11.820;2022-12-18T05:53:36;22.92;;;21.33;;
46282;SDS011;32017;43.700;11.820;2022-12-18T05:55:59;101.28;;;29.67;;
46282;SDS011;32017;43.700;11.820;2022-12-18T06:00:41;398.90;;;48.97;;
46282;SDS011;32017;43.700;11.820;2022-12-18T06:03:04;236.82;;;41.13;;
46282;SDS011;32017;43.700;11.820;2022-12-18T06:05:25;247.98;;;39.13;;
46282;SDS011;32017;43.700;11.820;2022-12-18T06:07:45;28.17;;;27.08;;
46282;SDS011;32017;43.700;11.820;2022-12-18T06:10:05;27.17;;;26.17;;
46282;SDS011;32017;43.700;11.820;2022-12-18T06:12:25;25.60;;;24.13;;
46282;SDS011;32017;43.700;11.820;2022-12-18T06:14:45;11.02;;;10.73;;
46282;SDS011;32017;43.700;11.820;2022-12-18T06:17:05;21.33;;;20.58;;
46282;SDS011;32017;43.700;11.820;2022-12-18T06:19:25;21.27;;;20.48;;
46282;SDS011;32017;43.700;11.820;2022-12-18T06:21:46;14.95;;;14.65;;
46282;SDS011;32017;43.700;11.820;2022-12-18T06:24:06;7.75;;;7.65;;
46282;SDS011;32017;43.700;11.820;2022-12-18T06:26:26;8.73;;;8.45;;
46282;SDS011;32017;43.700;11.820;2022-12-18T06:28:47;7.18;;;7.07;;
46282;SDS011;32017;43.700;11.820;2022-12-18T06:31:07;8.13;;;7.93;;
46282;SDS011;32017;43.700;11.820;2022-12-18T06:33:27;8.70;;;8.50;;
46282;SDS011;32017;43.700;11.820;2022-12-18T06:35:48;9.45;;;8.98;;
46282;SDS011;32017;43.700;11.820;2022-12-18T06:38:09;9.70;;;9.40;;
46282;SDS011;32017;43.700;11.820;2022-12-18T06:40:29;11.75;;;11.07;;
46282;SDS011;32017;43.700;11.820;2022-12-18T06:42:49;11.32;;;10.70;;
46282;SDS011;32017;43.700;11.820;2022-12-18T06:45:09;14.00;;;13.35;;
46282;SDS011;32017;43.700;11.820;2022-12-18T06:47:30;13.10;;;12.50;;
46282;SDS011;32017;43.700;11.820;2022-12-18T06:49:50;15.43;;;14.45;;
46282;SDS011;32017;43.700;11.820;2022-12-18T06:52:10;14.38;;;13.57;;
46282;SDS011;32017;43.700;11.820;2022-12-18T06:54:30;24.73;;;22.25;;
46282;SDS011;32017;43.700;11.820;2022-12-18T06:56:50;12.02;;;11.52;;
46282;SDS011;32017;43.700;11.820;2022-12-18T06:59:10;14.23;;;13.32;;
46282;SDS011;32017;43.700;11.820;2022-12-18T07:01:30;14.50;;;13.50;;
46282;SDS011;32017;43.700;11.820;2022-12-18T07:03:54;26.73;;;24.63;;
46282;SDS011;32017;43.700;11.820;2022-12-18T07:06:15;24.80;;;23.67;;
46282;SDS011;32017;43.700;11.820;2022-12-18T07:08:36;27.52;;;26.00;;
46282;SDS011;32017;43.700;11.820;2022-12-18T07:10:56;29.67;;;27.77;;
46282;SDS011;32017;43.700;11.820;2022-12-18T07:13:16;36.55;;;34.42;;
46282;SDS011;32017;43.700;11.820;2022-12-18T07:15:37;37.90;;;35.95;;
46282;SDS011;32017;43.700;11.820;2022-12-18T07:17:56;32.50;;;31.20;;
46282;SDS011;32017;43.700;11.820;2022-12-18T07:20:16;27.70;;;26.35;;
46282;SDS011;32017;43.700;11.820;2022-12-18T07:22:36;17.15;;;16.70;;
46282;SDS011;32017;43.700;11.820;2022-12-18T07:24:56;13.68;;;12.98;;
46282;SDS011;32017;43.700;11.820;2022-12-18T07:27:16;10.07;;;9.88;;
46282;SDS011;32017;43.700;11.820;2022-12-18T07:29:36;10.35;;;9.63;;
46282;SDS011;32017;43.700;11.820;2022-12-18T07:31:56;22.98;;;20.65;;
46282;SDS011;32017;43.700;11.820;2022-12-18T07:34:16;13.18;;;12.43;;
46282;SDS011;32017;43.700;11.820;2022-12-18T07:36:37;11.73;;;11.02;;
46282;SDS011;32017;43.700;11.820;2022-12-18T07:38:56;114.30;;;67.25;;
46282;SDS011;32017;43.700;11.820;2022-12-18T07:41:17;57.88;;;41.53;;
46282;SDS011;32017;43.700;11.820;2022-12-18T07:43:37;19.85;;;18.00;;
46282;SDS011;32017;43.700;11.820;2022-12-18T07:46:00;17.17;;;15.73;;
46282;SDS011;32017;43.700;11.820;2022-12-18T07:48:21;13.25;;;12.55;;
46282;SDS011;32017;43.700;11.820;2022-12-18T07:50:41;13.15;;;11.98;;
46282;SDS011;32017;43.700;11.820;2022-12-18T07:53:00;10.57;;;9.93;;
46282;SDS011;32017;43.700;11.820;2022-12-18T07:57:43;16.48;;;15.25;;
46282;SDS011;32017;43.700;11.820;2022-12-18T08:00:18;10.63;;;10.18;;
46282;SDS011;32017;43.700;11.820;2022-12-18T08:02:38;22.75;;;20.77;;
46282;SDS011;32017;43.700;11.820;2022-12-18T08:04:58;9.18;;;8.73;;
46282;SDS011;32017;43.700;11.820;2022-12-18T08:07:17;8.02;;;7.93;;
46282;SDS011;32017;43.700;11.820;2022-12-18T08:09:37;7.35;;;6.93;;
46282;SDS011;32017;43.700;11.820;2022-12-18T08:11:57;8.45;;;8.23;;
46282;SDS011;32017;43.700;11.820;2022-12-18T08:14:16;8.32;;;8.02;;
46282;SDS011;32017;43.700;11.820;2022-12-18T08:16:37;8.25;;;7.95;;
46282;SDS011;32017;43.700;11.820;2022-12-18T08:18:56;15.43;;;14.23;;
46282;SDS011;32017;43.700;11.820;2022-12-18T08:21:19;18.42;;;17.15;;
46282;SDS011;32017;43.700;11.820;2022-12-18T08:23:42;26.50;;;23.92;;
46282;SDS011;32017;43.700;11.820;2022-12-18T08:26:03;13.55;;;12.85;;
46282;SDS011;32017;43.700;11.820;2022-12-18T08:28:23;15.68;;;14.57;;
46282;SDS011;32017;43.700;11.820;2022-12-18T08:30:42;12.38;;;11.98;;
46282;SDS011;32017;43.700;11.820;2022-12-18T08:33:02;11.18;;;10.77;;
46282;SDS011;32017;43.700;11.820;2022-12-18T08:35:22;14.60;;;13.77;;
46282;SDS011;32017;43.700;11.820;2022-12-18T08:37:42;19.98;;;16.75;;
46282;SDS011;32017;43.700;11.820;2022-12-18T08:40:02;8.73;;;8.45;;
46282;SDS011;32017;43.700;11.820;2022-12-18T08:42:22;9.88;;;9.68;;
46282;SDS011;32017;43.700;11.820;2022-12-18T08:45:01;9.25;;;8.98;;
46282;SDS011;32017;43.700;11.820;2022-12-18T08:47:21;6.30;;;6.10;;
46282;SDS011;32017;43.700;11.820;2022-12-18T08:49:41;7.25;;;7.05;;
46282;SDS011;32017;43.700;11.820;2022-12-18T08:52:01;7.95;;;7.70;;
46282;SDS011;32017;43.700;11.820;2022-12-18T08:54:21;8.00;;;7.80;;
46282;SDS011;32017;43.700;11.820;2022-12-18T08:56:42;10.20;;;9.57;;
46282;SDS011;32017;43.700;11.820;2022-12-18T08:59:03;11.43;;;10.80;;
46282;SDS011;32017;43.700;11.820;2022-12-18T09:01:24;13.13;;;12.43;;
46282;SDS011;32017;43.700;11.820;2022-12-18T09:03:43;12.00;;;11.18;;
46282;SDS011;32017;43.700;11.820;2022-12-18T09:06:04;12.02;;;11.48;;
46282;SDS011;32017;43.700;11.820;2022-12-18T09:08:24;10.48;;;9.82;;
46282;SDS011;32017;43.700;11.820;2022-12-18T09:10:48;22.08;;;19.98;;
46282;SDS011;32017;43.700;11.820;2022-12-18T09:13:09;8.05;;;7.90;;
46282;SDS011;32017;43.700;11.820;2022-12-18T09:15:30;7.50;;;7.07;;
46282;SDS011;32017;43.700;11.820;2022-12-18T09:17:50;7.85;;;7.47;;
46282;SDS011;32017;43.700;11.820;2022-12-18T09:20:12;6.70;;;6.57;;
46282;SDS011;32017;43.700;11.820;2022-12-18T09:22:32;6.75;;;5.95;;
46282;SDS011;32017;43.700;11.820;2022-12-18T09:24:51;7.90;;;7.60;;
46282;SDS011;32017;43.700;11.820;2022-12-18T09:27:11;8.25;;;7.88;;
46282;SDS011;32017;43.700;11.820;2022-12-18T09:29:31;8.85;;;8.50;;
46282;SDS011;32017;43.700;11.820;2022-12-18T09:31:52;7.95;;;7.55;;
46282;SDS011;32017;43.700;11.820;2022-12-18T09:34:12;7.55;;;7.35;;
46282;SDS011;32017;43.700;11.820;2022-12-18T09:36:31;8.15;;;7.53;;
46282;SDS011;32017;43.700;11.820;2022-12-18T09:38:52;14.07;;;13.10;;
46282;SDS011;32017;43.700;11.820;2022-12-18T09:46:45;9.57;;;9.15;;
46282;SDS011;32017;43.700;11.820;2022-12-18T09:49:11;12.93;;;11.95;;
46282;SDS011;32017;43.700;11.820;2022-12-18T09:51:37;11.90;;;11.18;;
46282;SDS011;32017;43.700;11.820;2022-12-18T09:54:07;9.43;;;9.00;;
46282;SDS011;32017;43.700;11.820;2022-12-18T09:56:37;9.02;;;8.30;;
46282;SDS011;32017;43.700;11.820;2022-12-18T09:59:00;9.05;;;8.65;;
46282;SDS011;32017;43.700;11.820;2022-12-18T10:01:22;12.20;;;11.20;;
46282;SDS011;32017;43.700;11.820;2022-12-18T10:03:42;9.80;;;9.18;;
46282;SDS011;32017;43.700;11.820;2022-12-18T10:06:13;9.38;;;8.88;;
46282;SDS011;32017;43.700;11.820;2022-12-18T10:14:15;10.27;;;9.93;;
46282;SDS011;32017;43.700;11.820;2022-12-18T10:27:47;23.23;;;20.35;;
46282;SDS011;32017;43.700;11.820;2022-12-18T10:30:15;11.80;;;11.25;;
46282;SDS011;32017;43.700;11.820;2022-12-18T10:32:38;10.88;;;10.02;;
46282;SDS011;32017;43.700;11.820;2022-12-18T10:34:58;13.75;;;12.80;;
46282;SDS011;32017;43.700;11.820;2022-12-18T10:37:20;21.08;;;19.08;;
46282;SDS011;32017;43.700;11.820;2022-12-18T10:39:42;11.40;;;10.85;;
46282;SDS011;32017;43.700;11.820;2022-12-18T10:42:16;10.88;;;10.05;;
46282;SDS011;32017;43.700;11.820;2022-12-18T10:44:38;7.60;;;7.15;;
46282;SDS011;32017;43.700;11.820;2022-12-18T10:47:02;9.48;;;8.98;;
46282;SDS011;32017;43.700;11.820;2022-12-18T10:49:33;8.00;;;7.63;;
46282;SDS011;32017;43.700;11.820;2022-12-18T10:52:37;7.03;;;6.82;;
46282;SDS011;32017;43.700;11.820;2022-12-18T10:54:45;6.47;;;6.32;;
46282;SDS011;32017;43.700;11.820;2022-12-18T10:57:28;4.55;;;4.30;;
46282;SDS011;32017;43.700;11.820;2022-12-18T10:59:53;6.85;;;6.32;;
46282;SDS011;32017;43.700;11.820;2022-12-18T11:02:34;7.15;;;6.63;;
46282;SDS011;32017;43.700;11.820;2022-12-18T11:04:57;6.30;;;6.20;;
46282;SDS011;32017;43.700;11.820;2022-12-18T11:07:17;7.07;;;6.93;;
46282;SDS011;32017;43.700;11.820;2022-12-18T11:09:38;4.95;;;4.85;;
46282;SDS011;32017;43.700;11.820;2022-12-18T11:12:03;55.35;;;33.17;;
46282;SDS011;32017;43.700;11.820;2022-12-18T11:14:34;68.63;;;41.22;;
46282;SDS011;32017;43.700;11.820;2022-12-18T11:19:45;12.82;;;11.88;;
46282;SDS011;32017;43.700;11.820;2022-12-18T11:22:19;10.73;;;10.02;;
46282;SDS011;32017;43.700;11.820;2022-12-18T11:24:42;7.10;;;6.70;;
46282;SDS011;32017;43.700;11.820;2022-12-18T11:27:03;4.88;;;4.72;;
46282;SDS011;32017;43.700;11.820;2022-12-18T11:29:28;5.15;;;5.00;;
46282;SDS011;32017;43.700;11.820;2022-12-18T11:34:50;30.23;;;24.55;;
46282;SDS011;32017;43.700;11.820;2022-12-18T11:37:18;12.20;;;11.45;;
46282;SDS011;32017;43.700;11.820;2022-12-18T11:39:45;2.50;;;2.50;;
46282;SDS011;32017;43.700;11.820;2022-12-18T11:44:38;15.40;;;11.60;;
46282;SDS011;32017;43.700;11.820;2022-12-18T11:47:16;4.18;;;4.00;;
46282;SDS011;32017;43.700;11.820;2022-12-18T11:49:58;4.78;;;4.68;;
46282;SDS011;32017;43.700;11.820;2022-12-18T11:52:37;2.58;;;2.55;;
46282;SDS011;32017;43.700;11.820;2022-12-18T11:54:58;2.88;;;2.78;;
46282;SDS011;32017;43.700;11.820;2022-12-18T11:57:35;3.30;;;3.20;;
46282;SDS011;32017;43.700;11.820;2022-12-18T12:00:16;3.65;;;3.55;;
46282;SDS011;32017;43.700;11.820;2022-12-18T12:02:55;3.65;;;3.55;;
46282;SDS011;32017;43.700;11.820;2022-12-18T12:05:35;3.33;;;3.22;;
46282;SDS011;32017;43.700;11.820;2022-12-18T12:08:15;3.47;;;3.38;;
46282;SDS011;32017;43.700;11.820;2022-12-18T12:16:16;4.15;;;4.05;;
46282;SDS011;32017;43.700;11.820;2022-12-18T12:22:03;4.13;;;4.03;;
46282;SDS011;32017;43.700;11.820;2022-12-18T12:38:00;3.60;;;3.50;;
46282;SDS011;32017;43.700;11.820;2022-12-18T12:40:27;3.78;;;3.67;;
46282;SDS011;32017;43.700;11.820;2022-12-18T12:46:00;3.30;;;3.15;;
46282;SDS011;32017;43.700;11.820;2022-12-18T12:48:27;2.42;;;2.42;;
46282;SDS011;32017;43.700;11.820;2022-12-18T12:51:21;3.00;;;2.90;;
46282;SDS011;32017;43.700;11.820;2022-12-18T12:53:47;8.02;;;7.18;;
46282;SDS011;32017;43.700;11.820;2022-12-18T12:56:09;2.25;;;2.13;;
46282;SDS011;32017;43.700;11.820;2022-12-18T13:00:59;3.67;;;3.47;;
46282;SDS011;32017;43.700;11.820;2022-12-18T13:09:09;5.68;;;5.47;;
46282;SDS011;32017;43.700;11.820;2022-12-18T13:11:46;4.28;;;4.18;;
46282;SDS011;32017;43.700;11.820;2022-12-18T13:17:14;3.47;;;3.38;;
46282;SDS011;32017;43.700;11.820;2022-12-18T13:19:36;4.32;;;4.13;;
46282;SDS011;32017;43.700;11.820;2022-12-18T13:21:57;5.55;;;4.13;;
46282;SDS011;32017;43.700;11.820;2022-12-18T13:24:35;5.47;;;5.28;;
46282;SDS011;32017;43.700;11.820;2022-12-18T13:26:55;6.30;;;6.00;;
46282;SDS011;32017;43.700;11.820;2022-12-18T13:29:40;5.53;;;5.22;;
46282;SDS011;32017;43.700;11.820;2022-12-18T13:32:23;7.55;;;7.18;;
46282;SDS011;32017;43.700;11.820;2022-12-18T13:34:45;5.95;;;5.63;;
46282;SDS011;32017;43.700;11.820;2022-12-18T13:40:06;4.03;;;2.55;;
46282;SDS011;32017;43.700;11.820;2022-12-18T13:48:02;1.50;;;1.50;;
46282;SDS011;32017;43.700;11.820;2022-12-18T13:50:23;1.40;;;1.40;;
46282;SDS011;32017;43.700;11.820;2022-12-18T13:52:51;1.50;;;1.50;;
46282;SDS011;32017;43.700;11.820;2022-12-18T13:55:15;1.85;;;1.85;;
46282;SDS011;32017;43.700;11.820;2022-12-18T13:57:38;2.10;;;2.10;;
46282;SDS011;32017;43.700;11.820;2022-12-18T14:02:52;2.50;;;2.40;;
46282;SDS011;32017;43.700;11.820;2022-12-18T14:05:31;2.70;;;2.60;;
46282;SDS011;32017;43.700;11.820;2022-12-18T14:07:55;1.88;;;1.88;;
46282;SDS011;32017;43.700;11.820;2022-12-18T14:10:22;2.55;;;2.42;;
46282;SDS011;32017;43.700;11.820;2022-12-18T14:13:03;2.53;;;2.42;;
46282;SDS011;32017;43.700;11.820;2022-12-18T14:15:32;2.65;;;2.50;;
46282;SDS011;32017;43.700;11.820;2022-12-18T14:18:00;2.47;;;2.38;;
46282;SDS011;32017;43.700;11.820;2022-12-18T14:20:20;3.55;;;3.35;;
46282;SDS011;32017;43.700;11.820;2022-12-18T14:22:45;3.53;;;3.42;;
46282;SDS011;32017;43.700;11.820;2022-12-18T14:27:36;5.13;;;4.90;;
46282;SDS011;32017;43.700;11.820;2022-12-18T14:29:57;2.97;;;2.88;;
46282;SDS011;32017;43.700;11.820;2022-12-18T14:32:18;3.03;;;2.97;;
46282;SDS011;32017;43.700;11.820;2022-12-18T14:34:39;4.17;;;4.00;;
46282;SDS011;32017;43.700;11.820;2022-12-18T14:36:59;6.60;;;6.22;;
46282;SDS011;32017;43.700;11.820;2022-12-18T14:39:19;5.18;;;4.93;;
46282;SDS011;32017;43.700;11.820;2022-12-18T14:41:40;3.35;;;3.25;;
46282;SDS011;32017;43.700;11.820;2022-12-18T14:44:04;5.38;;;5.18;;
46282;SDS011;32017;43.700;11.820;2022-12-18T14:48:55;3.35;;;3.25;;
46282;SDS011;32017;43.700;11.820;2022-12-18T14:53:44;4.20;;;3.88;;
46282;SDS011;32017;43.700;11.820;2022-12-18T14:58:34;4.15;;;4.03;;
46282;SDS011;32017;43.700;11.820;2022-12-18T15:00:53;4.30;;;4.22;;
46282;SDS011;32017;43.700;11.820;2022-12-18T15:03:18;4.38;;;4.20;;
46282;SDS011;32017;43.700;11.820;2022-12-18T15:05:41;4.25;;;4.15;;
46282;SDS011;32017;43.700;11.820;2022-12-18T15:08:00;4.47;;;4.38;;
46282;SDS011;32017;43.700;11.820;2022-12-18T15:10:22;4.82;;;4.80;;
46282;SDS011;32017;43.700;11.820;2022-12-18T15:12:49;4.80;;;4.75;;
46282;SDS011;32017;43.700;11.820;2022-12-18T15:18:10;5.28;;;5.18;;
46282;SDS011;32017;43.700;11.820;2022-12-18T15:23:20;5.13;;;4.88;;
46282;SDS011;32017;43.700;11.820;2022-12-18T15:26:37;5.18;;;5.00;;
46282;SDS011;32017;43.700;11.820;2022-12-18T15:28:58;5.55;;;5.18;;
46282;SDS011;32017;43.700;11.820;2022-12-18T15:31:24;6.70;;;6.15;;
46282;SDS011;32017;43.700;11.820;2022-12-18T15:36:15;4.88;;;4.78;;
46282;SDS011;32017;43.700;11.820;2022-12-18T15:38:49;4.95;;;4.82;;
46282;SDS011;32017;43.700;11.820;2022-12-18T15:44:54;4.45;;;4.25;;
46282;SDS011;32017;43.700;11.820;2022-12-18T15:47:14;5.00;;;4.88;;
46282;SDS011;32017;43.700;11.820;2022-12-18T15:49:34;4.93;;;4.68;;
46282;SDS011;32017;43.700;11.820;2022-12-18T15:51:56;8.88;;;5.88;;
46282;SDS011;32017;43.700;11.820;2022-12-18T15:54:18;6.63;;;5.65;;
46282;SDS011;32017;43.700;11.820;2022-12-18T15:56:58;7.78;;;7.03;;
46282;SDS011;32017;43.700;11.820;2022-12-18T15:59:36;5.75;;;5.45;;
46282;SDS011;32017;43.700;11.820;2022-12-18T16:01:56;7.70;;;7.38;;
46282;SDS011;32017;43.700;11.820;2022-12-18T16:04:17;5.47;;;5.38;;